sensor_id;sensor_type;location;lat;lon;timestamp;temperature;humidity
19085;DHT22;9675;51.538;6.728;2022-08-14T00:01:35;29.60;84.40
19085;DHT22;9675;51.538;6.728;2022-08-14T00:04:03;29.50;84.40
19085;DHT22;9675;51.538;6.728;2022-08-14T00:06:30;29.50;84.80
19085;DHT22;9675;51.538;6.728;2022-08-14T00:08:58;29.50;84.80
19085;DHT22;9675;51.538;6.728;2022-08-14T00:11:25;29.40;84.70
19085;DHT22;9675;51.538;6.728;2022-08-14T00:13:52;29.40;85.00
19085;DHT22;9675;51.538;6.728;2022-08-14T00:16:20;29.40;85.20
19085;DHT22;9675;51.538;6.728;2022-08-14T00:18:47;29.30;85.20
19085;DHT22;9675;51.538;6.728;2022-08-14T00:21:16;29.30;85.30
19085;DHT22;9675;51.538;6.728;2022-08-14T00:23:43;29.30;85.30
19085;DHT22;9675;51.538;6.728;2022-08-14T00:26:10;29.20;85.50
19085;DHT22;9675;51.538;6.728;2022-08-14T00:28:37;29.10;85.70
19085;DHT22;9675;51.538;6.728;2022-08-14T00:31:05;29.10;85.70
19085;DHT22;9675;51.538;6.728;2022-08-14T00:33:32;29.10;85.80
19085;DHT22;9675;51.538;6.728;2022-08-14T00:35:59;29.10;85.80
19085;DHT22;9675;51.538;6.728;2022-08-14T00:38:28;29.00;85.90
19085;DHT22;9675;51.538;6.728;2022-08-14T00:40:55;29.00;85.90
19085;DHT22;9675;51.538;6.728;2022-08-14T00:43:22;29.00;86.10
19085;DHT22;9675;51.538;6.728;2022-08-14T00:45:49;28.90;86.30
19085;DHT22;9675;51.538;6.728;2022-08-14T00:48:17;28.90;86.30
19085;DHT22;9675;51.538;6.728;2022-08-14T00:50:44;28.80;86.70
19085;DHT22;9675;51.538;6.728;2022-08-14T00:53:11;28.80;86.70
19085;DHT22;9675;51.538;6.728;2022-08-14T00:55:42;28.80;86.70
19085;DHT22;9675;51.538;6.728;2022-08-14T00:58:11;28.80;87.00
19085;DHT22;9675;51.538;6.728;2022-08-14T01:00:57;28.70;86.80
19085;DHT22;9675;51.538;6.728;2022-08-14T01:03:26;28.70;87.00
19085;DHT22;9675;51.538;6.728;2022-08-14T01:05:55;28.70;87.20
19085;DHT22;9675;51.538;6.728;2022-08-14T01:08:26;28.60;87.40
19085;DHT22;9675;51.538;6.728;2022-08-14T01:10:57;28.60;87.30
19085;DHT22;9675;51.538;6.728;2022-08-14T01:13:26;28.50;87.50
19085;DHT22;9675;51.538;6.728;2022-08-14T01:15:58;28.50;87.70
19085;DHT22;9675;51.538;6.728;2022-08-14T01:18:29;28.50;88.60
19085;DHT22;9675;51.538;6.728;2022-08-14T01:23:45;28.50;88.00
19085;DHT22;9675;51.538;6.728;2022-08-14T01:26:15;28.40;88.10
19085;DHT22;9675;51.538;6.728;2022-08-14T01:28:45;28.40;88.30
19085;DHT22;9675;51.538;6.728;2022-08-14T01:31:15;28.40;88.50
19085;DHT22;9675;51.538;6.728;2022-08-14T01:33:46;28.30;88.40
19085;DHT22;9675;51.538;6.728;2022-08-14T01:36:18;28.30;88.50
19085;DHT22;9675;51.538;6.728;2022-08-14T01:38:47;28.20;88.80
19085;DHT22;9675;51.538;6.728;2022-08-14T01:41:17;28.30;88.90
19085;DHT22;9675;51.538;6.728;2022-08-14T01:43:48;28.20;89.00
19085;DHT22;9675;51.538;6.728;2022-08-14T01:46:17;28.10;89.00
19085;DHT22;9675;51.538;6.728;2022-08-14T01:48:46;28.10;89.20
19085;DHT22;9675;51.538;6.728;2022-08-14T01:51:15;28.10;89.30
19085;DHT22;9675;51.538;6.728;2022-08-14T01:53:47;28.10;89.40
19085;DHT22;9675;51.538;6.728;2022-08-14T01:56:17;28.00;89.50
19085;DHT22;9675;51.538;6.728;2022-08-14T01:58:45;28.00;89.60
19085;DHT22;9675;51.538;6.728;2022-08-14T02:01:15;28.00;89.60
19085;DHT22;9675;51.538;6.728;2022-08-14T02:03:43;27.90;89.50
19085;DHT22;9675;51.538;6.728;2022-08-14T02:06:11;27.90;90.30
19085;DHT22;9675;51.538;6.728;2022-08-14T02:08:40;27.90;90.00
19085;DHT22;9675;51.538;6.728;2022-08-14T02:11:10;27.80;89.90
19085;DHT22;9675;51.538;6.728;2022-08-14T02:13:49;27.80;90.00
19085;DHT22;9675;51.538;6.728;2022-08-14T02:16:20;27.80;90.10
19085;DHT22;9675;51.538;6.728;2022-08-14T02:18:50;27.70;90.50
19085;DHT22;9675;51.538;6.728;2022-08-14T02:21:20;27.70;90.20
19085;DHT22;9675;51.538;6.728;2022-08-14T02:23:49;27.70;90.20
19085;DHT22;9675;51.538;6.728;2022-08-14T02:26:22;27.70;90.30
19085;DHT22;9675;51.538;6.728;2022-08-14T02:28:52;27.60;90.40
19085;DHT22;9675;51.538;6.728;2022-08-14T02:31:21;27.60;90.30
19085;DHT22;9675;51.538;6.728;2022-08-14T02:33:48;27.50;90.40
19085;DHT22;9675;51.538;6.728;2022-08-14T02:36:15;27.50;90.50
19085;DHT22;9675;51.538;6.728;2022-08-14T02:38:42;27.50;90.50
19085;DHT22;9675;51.538;6.728;2022-08-14T02:41:11;27.40;90.70
19085;DHT22;9675;51.538;6.728;2022-08-14T02:43:41;27.40;90.60
19085;DHT22;9675;51.538;6.728;2022-08-14T02:46:09;27.40;90.70
19085;DHT22;9675;51.538;6.728;2022-08-14T02:48:38;27.40;90.70
19085;DHT22;9675;51.538;6.728;2022-08-14T02:51:09;27.40;90.80
19085;DHT22;9675;51.538;6.728;2022-08-14T02:53:38;27.40;90.90
19085;DHT22;9675;51.538;6.728;2022-08-14T02:56:08;27.30;90.80
19085;DHT22;9675;51.538;6.728;2022-08-14T02:58:37;27.30;91.00
19085;DHT22;9675;51.538;6.728;2022-08-14T03:01:09;27.30;90.90
19085;DHT22;9675;51.538;6.728;2022-08-14T03:03:37;27.20;91.00
19085;DHT22;9675;51.538;6.728;2022-08-14T03:06:05;27.20;91.00
19085;DHT22;9675;51.538;6.728;2022-08-14T03:08:34;27.20;91.20
19085;DHT22;9675;51.538;6.728;2022-08-14T03:11:04;27.10;91.20
19085;DHT22;9675;51.538;6.728;2022-08-14T03:13:34;27.10;91.30
19085;DHT22;9675;51.538;6.728;2022-08-14T03:16:11;27.10;91.30
19085;DHT22;9675;51.538;6.728;2022-08-14T03:18:41;27.10;91.50
19085;DHT22;9675;51.538;6.728;2022-08-14T03:21:11;27.00;91.50
19085;DHT22;9675;51.538;6.728;2022-08-14T03:23:41;27.00;91.60
19085;DHT22;9675;51.538;6.728;2022-08-14T03:26:11;27.00;91.60
19085;DHT22;9675;51.538;6.728;2022-08-14T03:28:41;26.90;91.70
19085;DHT22;9675;51.538;6.728;2022-08-14T03:31:11;27.00;91.70
19085;DHT22;9675;51.538;6.728;2022-08-14T03:33:40;26.90;91.80
19085;DHT22;9675;51.538;6.728;2022-08-14T03:36:09;26.80;91.70
19085;DHT22;9675;51.538;6.728;2022-08-14T03:38:40;26.80;91.80
19085;DHT22;9675;51.538;6.728;2022-08-14T03:41:09;26.80;91.90
19085;DHT22;9675;51.538;6.728;2022-08-14T03:43:39;26.80;92.00
19085;DHT22;9675;51.538;6.728;2022-08-14T03:46:06;26.80;92.10
19085;DHT22;9675;51.538;6.728;2022-08-14T03:48:40;26.70;92.10
19085;DHT22;9675;51.538;6.728;2022-08-14T03:51:09;26.70;92.10
19085;DHT22;9675;51.538;6.728;2022-08-14T03:53:40;26.70;92.20
19085;DHT22;9675;51.538;6.728;2022-08-14T03:56:11;26.60;92.30
19085;DHT22;9675;51.538;6.728;2022-08-14T03:58:41;26.60;92.30
19085;DHT22;9675;51.538;6.728;2022-08-14T04:01:11;26.60;92.50
19085;DHT22;9675;51.538;6.728;2022-08-14T04:03:39;26.60;92.50
19085;DHT22;9675;51.538;6.728;2022-08-14T04:06:07;26.50;92.50
19085;DHT22;9675;51.538;6.728;2022-08-14T04:08:35;26.50;92.60
19085;DHT22;9675;51.538;6.728;2022-08-14T04:11:04;26.50;92.70
19085;DHT22;9675;51.538;6.728;2022-08-14T04:13:34;26.40;92.70
19085;DHT22;9675;51.538;6.728;2022-08-14T04:16:04;26.40;92.80
19085;DHT22;9675;51.538;6.728;2022-08-14T04:18:33;26.40;92.80
19085;DHT22;9675;51.538;6.728;2022-08-14T04:21:05;26.40;92.90
19085;DHT22;9675;51.538;6.728;2022-08-14T04:23:34;26.30;93.00
19085;DHT22;9675;51.538;6.728;2022-08-14T04:26:02;26.30;93.00
19085;DHT22;9675;51.538;6.728;2022-08-14T04:28:30;26.30;93.00
19085;DHT22;9675;51.538;6.728;2022-08-14T04:30:57;26.30;93.10
19085;DHT22;9675;51.538;6.728;2022-08-14T04:33:24;26.20;93.20
19085;DHT22;9675;51.538;6.728;2022-08-14T04:35:53;26.20;93.20
19085;DHT22;9675;51.538;6.728;2022-08-14T04:38:22;26.10;93.30
19085;DHT22;9675;51.538;6.728;2022-08-14T04:41:07;26.10;93.30
19085;DHT22;9675;51.538;6.728;2022-08-14T04:43:52;26.10;93.40
19085;DHT22;9675;51.538;6.728;2022-08-14T04:46:21;26.00;93.40
19085;DHT22;9675;51.538;6.728;2022-08-14T04:48:50;26.00;93.40
19085;DHT22;9675;51.538;6.728;2022-08-14T04:51:19;26.00;93.60
19085;DHT22;9675;51.538;6.728;2022-08-14T04:53:54;26.00;93.60
19085;DHT22;9675;51.538;6.728;2022-08-14T04:56:23;26.00;93.80
19085;DHT22;9675;51.538;6.728;2022-08-14T04:58:53;25.90;93.70
19085;DHT22;9675;51.538;6.728;2022-08-14T05:01:25;25.90;93.80
19085;DHT22;9675;51.538;6.728;2022-08-14T05:03:53;25.90;93.80
19085;DHT22;9675;51.538;6.728;2022-08-14T05:06:20;25.90;94.00
19085;DHT22;9675;51.538;6.728;2022-08-14T05:08:47;25.80;94.10
19085;DHT22;9675;51.538;6.728;2022-08-14T05:11:16;25.80;94.00
19085;DHT22;9675;51.538;6.728;2022-08-14T05:13:44;25.80;94.20
19085;DHT22;9675;51.538;6.728;2022-08-14T05:16:11;25.70;94.10
19085;DHT22;9675;51.538;6.728;2022-08-14T05:18:39;25.70;94.30
19085;DHT22;9675;51.538;6.728;2022-08-14T05:21:08;25.70;94.40
19085;DHT22;9675;51.538;6.728;2022-08-14T05:23:36;25.70;94.30
19085;DHT22;9675;51.538;6.728;2022-08-14T05:26:06;25.70;94.50
19085;DHT22;9675;51.538;6.728;2022-08-14T05:28:41;25.60;94.50
19085;DHT22;9675;51.538;6.728;2022-08-14T05:31:12;25.60;94.60
19085;DHT22;9675;51.538;6.728;2022-08-14T05:33:43;25.60;95.10
19085;DHT22;9675;51.538;6.728;2022-08-14T05:36:12;25.60;94.70
19085;DHT22;9675;51.538;6.728;2022-08-14T05:38:41;25.60;94.70
19085;DHT22;9675;51.538;6.728;2022-08-14T05:41:12;25.50;94.80
19085;DHT22;9675;51.538;6.728;2022-08-14T05:43:42;25.50;94.90
19085;DHT22;9675;51.538;6.728;2022-08-14T05:46:11;25.50;94.90
19085;DHT22;9675;51.538;6.728;2022-08-14T05:48:39;25.50;95.00
19085;DHT22;9675;51.538;6.728;2022-08-14T05:51:06;25.50;95.10
19085;DHT22;9675;51.538;6.728;2022-08-14T05:53:33;25.40;95.00
19085;DHT22;9675;51.538;6.728;2022-08-14T05:56:01;25.40;95.20
19085;DHT22;9675;51.538;6.728;2022-08-14T05:58:28;25.40;95.10
19085;DHT22;9675;51.538;6.728;2022-08-14T06:00:56;25.40;95.20
19085;DHT22;9675;51.538;6.728;2022-08-14T06:03:23;25.40;95.30
19085;DHT22;9675;51.538;6.728;2022-08-14T06:05:52;25.40;95.40
19085;DHT22;9675;51.538;6.728;2022-08-14T06:08:22;25.40;95.40
19085;DHT22;9675;51.538;6.728;2022-08-14T06:10:52;25.40;95.60
19085;DHT22;9675;51.538;6.728;2022-08-14T06:13:21;25.40;95.70
19085;DHT22;9675;51.538;6.728;2022-08-14T06:15:49;25.30;95.60
19085;DHT22;9675;51.538;6.728;2022-08-14T06:18:17;25.40;95.50
19085;DHT22;9675;51.538;6.728;2022-08-14T06:20:44;25.30;95.80
19085;DHT22;9675;51.538;6.728;2022-08-14T06:23:11;25.30;95.60
19085;DHT22;9675;51.538;6.728;2022-08-14T06:25:39;25.40;96.00
19085;DHT22;9675;51.538;6.728;2022-08-14T06:28:06;25.40;95.80
19085;DHT22;9675;51.538;6.728;2022-08-14T06:30:34;25.40;95.90
19085;DHT22;9675;51.538;6.728;2022-08-14T06:33:01;25.40;96.00
19085;DHT22;9675;51.538;6.728;2022-08-14T06:35:29;25.40;96.10
19085;DHT22;9675;51.538;6.728;2022-08-14T06:37:58;25.40;96.30
19085;DHT22;9675;51.538;6.728;2022-08-14T06:40:28;25.40;96.10
19085;DHT22;9675;51.538;6.728;2022-08-14T06:42:57;25.40;96.10
19085;DHT22;9675;51.538;6.728;2022-08-14T06:45:25;25.50;96.00
19085;DHT22;9675;51.538;6.728;2022-08-14T06:47:53;25.50;96.40
19085;DHT22;9675;51.538;6.728;2022-08-14T06:50:22;25.50;96.50
19085;DHT22;9675;51.538;6.728;2022-08-14T06:52:51;25.50;96.90
19085;DHT22;9675;51.538;6.728;2022-08-14T06:55:18;25.50;96.40
19085;DHT22;9675;51.538;6.728;2022-08-14T06:57:47;25.60;96.50
19085;DHT22;9675;51.538;6.728;2022-08-14T07:00:19;25.60;96.10
19085;DHT22;9675;51.538;6.728;2022-08-14T07:02:47;25.60;96.20
19085;DHT22;9675;51.538;6.728;2022-08-14T07:05:33;25.70;96.60
19085;DHT22;9675;51.538;6.728;2022-08-14T07:08:15;25.70;96.40
19085;DHT22;9675;51.538;6.728;2022-08-14T07:10:45;25.70;96.80
19085;DHT22;9675;51.538;6.728;2022-08-14T07:13:16;25.70;96.70
19085;DHT22;9675;51.538;6.728;2022-08-14T07:15:44;25.80;96.20
19085;DHT22;9675;51.538;6.728;2022-08-14T07:18:18;25.80;96.60
19085;DHT22;9675;51.538;6.728;2022-08-14T07:20:47;25.90;96.80
19085;DHT22;9675;51.538;6.728;2022-08-14T07:23:16;25.90;96.60
19085;DHT22;9675;51.538;6.728;2022-08-14T07:25:44;26.00;97.10
19085;DHT22;9675;51.538;6.728;2022-08-14T07:28:14;26.00;97.10
19085;DHT22;9675;51.538;6.728;2022-08-14T07:30:43;26.10;97.00
19085;DHT22;9675;51.538;6.728;2022-08-14T07:33:11;26.10;96.70
19085;DHT22;9675;51.538;6.728;2022-08-14T07:35:39;26.20;96.70
19085;DHT22;9675;51.538;6.728;2022-08-14T07:38:07;26.30;96.60
19085;DHT22;9675;51.538;6.728;2022-08-14T07:40:35;26.30;96.90
19085;DHT22;9675;51.538;6.728;2022-08-14T07:43:02;26.30;96.70
19085;DHT22;9675;51.538;6.728;2022-08-14T07:45:29;26.40;96.60
19085;DHT22;9675;51.538;6.728;2022-08-14T07:47:57;26.50;96.80
19085;DHT22;9675;51.538;6.728;2022-08-14T07:50:24;26.50;96.90
19085;DHT22;9675;51.538;6.728;2022-08-14T07:52:51;26.60;96.70
19085;DHT22;9675;51.538;6.728;2022-08-14T07:55:18;26.70;96.60
19085;DHT22;9675;51.538;6.728;2022-08-14T07:57:47;26.80;96.40
19085;DHT22;9675;51.538;6.728;2022-08-14T08:00:17;26.80;96.70
19085;DHT22;9675;51.538;6.728;2022-08-14T08:02:46;26.90;96.40
19085;DHT22;9675;51.538;6.728;2022-08-14T08:05:16;26.90;96.60
19085;DHT22;9675;51.538;6.728;2022-08-14T08:07:46;27.10;96.60
19085;DHT22;9675;51.538;6.728;2022-08-14T08:10:15;27.10;96.40
19085;DHT22;9675;51.538;6.728;2022-08-14T08:13:00;27.20;96.40
19085;DHT22;9675;51.538;6.728;2022-08-14T08:15:30;27.30;96.30
19085;DHT22;9675;51.538;6.728;2022-08-14T08:17:59;27.40;96.30
19085;DHT22;9675;51.538;6.728;2022-08-14T08:20:31;27.50;96.40
19085;DHT22;9675;51.538;6.728;2022-08-14T08:23:02;27.60;96.30
19085;DHT22;9675;51.538;6.728;2022-08-14T08:25:32;27.70;96.40
19085;DHT22;9675;51.538;6.728;2022-08-14T08:28:04;27.70;96.20
19085;DHT22;9675;51.538;6.728;2022-08-14T08:30:36;27.80;96.10
19085;DHT22;9675;51.538;6.728;2022-08-14T08:33:06;27.90;96.40
19085;DHT22;9675;51.538;6.728;2022-08-14T08:35:37;28.00;96.20
19085;DHT22;9675;51.538;6.728;2022-08-14T08:38:06;28.10;96.20
19085;DHT22;9675;51.538;6.728;2022-08-14T08:40:37;28.20;96.10
19085;DHT22;9675;51.538;6.728;2022-08-14T08:43:16;28.30;95.90
19085;DHT22;9675;51.538;6.728;2022-08-14T08:45:53;28.40;95.80
19085;DHT22;9675;51.538;6.728;2022-08-14T08:48:23;28.50;95.70
19085;DHT22;9675;51.538;6.728;2022-08-14T08:50:54;28.50;95.60
19085;DHT22;9675;51.538;6.728;2022-08-14T08:53:22;28.60;95.60
19085;DHT22;9675;51.538;6.728;2022-08-14T08:55:56;28.70;95.70
19085;DHT22;9675;51.538;6.728;2022-08-14T08:58:26;28.80;95.50
19085;DHT22;9675;51.538;6.728;2022-08-14T09:00:54;28.90;95.50
19085;DHT22;9675;51.538;6.728;2022-08-14T09:03:26;29.00;95.30
19085;DHT22;9675;51.538;6.728;2022-08-14T09:05:58;29.10;95.20
19085;DHT22;9675;51.538;6.728;2022-08-14T09:08:29;29.20;95.30
19085;DHT22;9675;51.538;6.728;2022-08-14T09:10:59;29.30;95.00
19085;DHT22;9675;51.538;6.728;2022-08-14T09:13:29;29.30;95.00
19085;DHT22;9675;51.538;6.728;2022-08-14T09:15:56;29.40;94.90
19085;DHT22;9675;51.538;6.728;2022-08-14T09:18:24;29.50;94.80
19085;DHT22;9675;51.538;6.728;2022-08-14T09:20:54;29.50;94.70
19085;DHT22;9675;51.538;6.728;2022-08-14T09:23:22;29.60;94.80
19085;DHT22;9675;51.538;6.728;2022-08-14T09:25:52;29.70;94.60
19085;DHT22;9675;51.538;6.728;2022-08-14T09:28:19;29.80;94.30
19085;DHT22;9675;51.538;6.728;2022-08-14T09:30:53;29.90;94.20
19085;DHT22;9675;51.538;6.728;2022-08-14T09:33:31;30.10;94.20
19085;DHT22;9675;51.538;6.728;2022-08-14T09:36:27;30.10;94.10
19085;DHT22;9675;51.538;6.728;2022-08-14T09:39:24;30.30;94.00
19085;DHT22;9675;51.538;6.728;2022-08-14T09:42:17;30.40;93.80
19085;DHT22;9675;51.538;6.728;2022-08-14T09:45:15;30.60;93.80
19085;DHT22;9675;51.538;6.728;2022-08-14T09:47:52;30.60;93.30
19085;DHT22;9675;51.538;6.728;2022-08-14T09:50:23;30.80;93.10
19085;DHT22;9675;51.538;6.728;2022-08-14T09:52:55;30.90;93.10
19085;DHT22;9675;51.538;6.728;2022-08-14T09:55:25;31.00;93.10
19085;DHT22;9675;51.538;6.728;2022-08-14T09:58:07;31.10;92.90
19085;DHT22;9675;51.538;6.728;2022-08-14T10:00:43;31.20;92.60
19085;DHT22;9675;51.538;6.728;2022-08-14T10:03:24;31.30;92.60
19085;DHT22;9675;51.538;6.728;2022-08-14T10:06:04;31.40;92.50
19085;DHT22;9675;51.538;6.728;2022-08-14T10:08:41;31.50;92.20
19085;DHT22;9675;51.538;6.728;2022-08-14T10:11:18;31.50;91.90
19085;DHT22;9675;51.538;6.728;2022-08-14T10:13:47;31.60;91.80
19085;DHT22;9675;51.538;6.728;2022-08-14T10:16:19;31.60;92.00
19085;DHT22;9675;51.538;6.728;2022-08-14T10:19:01;31.70;91.70
19085;DHT22;9675;51.538;6.728;2022-08-14T10:21:33;31.90;91.50
19085;DHT22;9675;51.538;6.728;2022-08-14T10:24:04;32.00;91.50
19085;DHT22;9675;51.538;6.728;2022-08-14T10:26:34;32.20;91.30
19085;DHT22;9675;51.538;6.728;2022-08-14T10:29:05;32.30;91.20
19085;DHT22;9675;51.538;6.728;2022-08-14T10:31:36;32.50;91.20
19085;DHT22;9675;51.538;6.728;2022-08-14T10:34:07;32.50;90.90
19085;DHT22;9675;51.538;6.728;2022-08-14T10:36:38;32.60;90.60
19085;DHT22;9675;51.538;6.728;2022-08-14T10:39:08;32.80;90.90
19085;DHT22;9675;51.538;6.728;2022-08-14T10:41:43;32.90;90.60
19085;DHT22;9675;51.538;6.728;2022-08-14T10:44:12;33.00;90.80
19085;DHT22;9675;51.538;6.728;2022-08-14T10:46:43;33.10;90.50
19085;DHT22;9675;51.538;6.728;2022-08-14T10:49:23;33.20;90.40
19085;DHT22;9675;51.538;6.728;2022-08-14T10:51:56;33.20;90.20
19085;DHT22;9675;51.538;6.728;2022-08-14T10:54:36;33.30;90.00
19085;DHT22;9675;51.538;6.728;2022-08-14T10:57:17;33.40;89.30
19085;DHT22;9675;51.538;6.728;2022-08-14T10:59:48;33.50;89.30
19085;DHT22;9675;51.538;6.728;2022-08-14T11:02:23;33.60;89.40
19085;DHT22;9675;51.538;6.728;2022-08-14T11:05:05;33.60;89.10
19085;DHT22;9675;51.538;6.728;2022-08-14T11:07:37;33.60;88.90
19085;DHT22;9675;51.538;6.728;2022-08-14T11:10:07;33.70;88.80
19085;DHT22;9675;51.538;6.728;2022-08-14T11:12:42;33.80;88.60
19085;DHT22;9675;51.538;6.728;2022-08-14T11:15:16;33.80;88.00
19085;DHT22;9675;51.538;6.728;2022-08-14T11:17:47;34.00;88.30
19085;DHT22;9675;51.538;6.728;2022-08-14T11:20:19;34.10;87.80
19085;DHT22;9675;51.538;6.728;2022-08-14T11:22:51;34.30;87.30
19085;DHT22;9675;51.538;6.728;2022-08-14T11:25:20;34.40;87.60
19085;DHT22;9675;51.538;6.728;2022-08-14T11:27:50;34.50;87.30
19085;DHT22;9675;51.538;6.728;2022-08-14T11:30:24;34.60;87.30
19085;DHT22;9675;51.538;6.728;2022-08-14T11:32:54;34.70;88.00
19085;DHT22;9675;51.538;6.728;2022-08-14T11:35:25;34.80;86.70
19085;DHT22;9675;51.538;6.728;2022-08-14T11:37:55;34.90;86.70
19085;DHT22;9675;51.538;6.728;2022-08-14T11:40:26;35.00;86.50
19085;DHT22;9675;51.538;6.728;2022-08-14T11:42:56;35.10;86.60
19085;DHT22;9675;51.538;6.728;2022-08-14T11:45:25;35.20;86.50
19085;DHT22;9675;51.538;6.728;2022-08-14T11:47:55;35.20;85.90
19085;DHT22;9675;51.538;6.728;2022-08-14T11:50:27;35.40;86.10
19085;DHT22;9675;51.538;6.728;2022-08-14T11:52:56;35.40;85.70
19085;DHT22;9675;51.538;6.728;2022-08-14T11:55:25;35.50;85.30
19085;DHT22;9675;51.538;6.728;2022-08-14T11:57:59;35.50;84.90
19085;DHT22;9675;51.538;6.728;2022-08-14T12:00:28;35.50;84.70
19085;DHT22;9675;51.538;6.728;2022-08-14T12:02:59;35.60;84.90
19085;DHT22;9675;51.538;6.728;2022-08-14T12:05:33;35.80;84.60
19085;DHT22;9675;51.538;6.728;2022-08-14T12:08:04;35.90;84.40
19085;DHT22;9675;51.538;6.728;2022-08-14T12:10:32;36.00;83.80
19085;DHT22;9675;51.538;6.728;2022-08-14T12:13:10;36.10;83.70
19085;DHT22;9675;51.538;6.728;2022-08-14T12:15:39;36.20;83.10
19085;DHT22;9675;51.538;6.728;2022-08-14T12:18:08;36.20;82.60
19085;DHT22;9675;51.538;6.728;2022-08-14T12:20:38;36.20;82.40
19085;DHT22;9675;51.538;6.728;2022-08-14T12:23:19;36.30;82.90
19085;DHT22;9675;51.538;6.728;2022-08-14T12:25:48;36.50;82.60
19085;DHT22;9675;51.538;6.728;2022-08-14T12:28:16;36.50;82.10
19085;DHT22;9675;51.538;6.728;2022-08-14T12:30:44;36.60;82.10
19085;DHT22;9675;51.538;6.728;2022-08-14T12:33:20;36.70;82.00
19085;DHT22;9675;51.538;6.728;2022-08-14T12:35:53;36.80;81.60
19085;DHT22;9675;51.538;6.728;2022-08-14T12:38:31;36.90;81.60
19085;DHT22;9675;51.538;6.728;2022-08-14T12:41:08;36.90;81.60
19085;DHT22;9675;51.538;6.728;2022-08-14T12:43:44;37.00;81.30
19085;DHT22;9675;51.538;6.728;2022-08-14T12:46:25;37.10;81.30
19085;DHT22;9675;51.538;6.728;2022-08-14T12:48:56;37.20;81.20
19085;DHT22;9675;51.538;6.728;2022-08-14T12:51:27;37.20;81.20
19085;DHT22;9675;51.538;6.728;2022-08-14T12:53:57;37.20;80.60
19085;DHT22;9675;51.538;6.728;2022-08-14T12:56:27;37.30;80.40
19085;DHT22;9675;51.538;6.728;2022-08-14T12:58:56;37.30;80.50
19085;DHT22;9675;51.538;6.728;2022-08-14T13:01:26;37.40;79.70
19085;DHT22;9675;51.538;6.728;2022-08-14T13:04:06;37.40;80.30
19085;DHT22;9675;51.538;6.728;2022-08-14T13:06:40;37.40;80.30
19085;DHT22;9675;51.538;6.728;2022-08-14T13:09:11;37.50;81.00
19085;DHT22;9675;51.538;6.728;2022-08-14T13:11:42;37.40;79.80
19085;DHT22;9675;51.538;6.728;2022-08-14T13:14:11;37.40;79.70
19085;DHT22;9675;51.538;6.728;2022-08-14T13:16:42;37.40;79.70
19085;DHT22;9675;51.538;6.728;2022-08-14T13:19:14;37.40;80.70
19085;DHT22;9675;51.538;6.728;2022-08-14T13:21:45;37.50;79.60
19085;DHT22;9675;51.538;6.728;2022-08-14T13:24:14;37.50;79.60
19085;DHT22;9675;51.538;6.728;2022-08-14T13:26:46;37.60;79.60
19085;DHT22;9675;51.538;6.728;2022-08-14T13:29:18;37.60;79.80
19085;DHT22;9675;51.538;6.728;2022-08-14T13:31:49;37.60;79.50
19085;DHT22;9675;51.538;6.728;2022-08-14T13:34:19;37.60;79.80
19085;DHT22;9675;51.538;6.728;2022-08-14T13:36:49;37.70;79.70
19085;DHT22;9675;51.538;6.728;2022-08-14T13:39:18;37.60;79.30
19085;DHT22;9675;51.538;6.728;2022-08-14T13:41:47;37.60;80.50
19085;DHT22;9675;51.538;6.728;2022-08-14T13:44:15;37.70;79.60
19085;DHT22;9675;51.538;6.728;2022-08-14T13:46:45;37.70;79.70
19085;DHT22;9675;51.538;6.728;2022-08-14T13:49:14;37.70;79.60
19085;DHT22;9675;51.538;6.728;2022-08-14T13:51:46;37.70;79.60
19085;DHT22;9675;51.538;6.728;2022-08-14T13:54:18;37.70;79.50
19085;DHT22;9675;51.538;6.728;2022-08-14T13:56:47;37.70;79.30
19085;DHT22;9675;51.538;6.728;2022-08-14T13:59:15;37.70;79.40
19085;DHT22;9675;51.538;6.728;2022-08-14T14:01:42;37.60;79.40
19085;DHT22;9675;51.538;6.728;2022-08-14T14:04:13;37.70;79.60
19085;DHT22;9675;51.538;6.728;2022-08-14T14:06:43;37.70;79.50
19085;DHT22;9675;51.538;6.728;2022-08-14T14:09:20;37.70;79.50
19085;DHT22;9675;51.538;6.728;2022-08-14T14:11:53;37.80;79.50
19085;DHT22;9675;51.538;6.728;2022-08-14T14:14:23;37.70;79.00
19085;DHT22;9675;51.538;6.728;2022-08-14T14:16:51;37.70;79.20
19085;DHT22;9675;51.538;6.728;2022-08-14T14:19:19;37.70;79.30
19085;DHT22;9675;51.538;6.728;2022-08-14T14:21:49;37.70;79.60
19085;DHT22;9675;51.538;6.728;2022-08-14T14:24:17;37.70;79.20
19085;DHT22;9675;51.538;6.728;2022-08-14T14:26:46;37.60;79.30
19085;DHT22;9675;51.538;6.728;2022-08-14T14:29:13;37.60;79.30
19085;DHT22;9675;51.538;6.728;2022-08-14T14:31:46;37.50;79.20
19085;DHT22;9675;51.538;6.728;2022-08-14T14:34:15;37.50;79.10
19085;DHT22;9675;51.538;6.728;2022-08-14T14:36:43;37.40;79.30
19085;DHT22;9675;51.538;6.728;2022-08-14T14:39:10;37.50;79.50
19085;DHT22;9675;51.538;6.728;2022-08-14T14:41:41;37.50;79.50
19085;DHT22;9675;51.538;6.728;2022-08-14T14:44:16;37.50;79.80
19085;DHT22;9675;51.538;6.728;2022-08-14T14:46:49;37.50;79.80
19085;DHT22;9675;51.538;6.728;2022-08-14T14:49:17;37.50;79.80
19085;DHT22;9675;51.538;6.728;2022-08-14T14:51:46;37.50;79.40
19085;DHT22;9675;51.538;6.728;2022-08-14T14:54:15;37.50;79.40
19085;DHT22;9675;51.538;6.728;2022-08-14T14:56:46;37.50;79.50
19085;DHT22;9675;51.538;6.728;2022-08-14T14:59:13;37.50;79.60
19085;DHT22;9675;51.538;6.728;2022-08-14T15:01:43;37.50;79.50
19085;DHT22;9675;51.538;6.728;2022-08-14T15:04:14;37.50;80.00
19085;DHT22;9675;51.538;6.728;2022-08-14T15:06:41;37.50;78.90
19085;DHT22;9675;51.538;6.728;2022-08-14T15:09:09;37.50;79.10
19085;DHT22;9675;51.538;6.728;2022-08-14T15:11:36;37.50;79.30
19085;DHT22;9675;51.538;6.728;2022-08-14T15:14:05;37.40;79.30
19085;DHT22;9675;51.538;6.728;2022-08-14T15:16:32;37.40;79.30
19085;DHT22;9675;51.538;6.728;2022-08-14T15:18:59;37.30;79.40
19085;DHT22;9675;51.538;6.728;2022-08-14T15:21:26;37.30;79.30
19085;DHT22;9675;51.538;6.728;2022-08-14T15:23:53;37.30;79.30
19085;DHT22;9675;51.538;6.728;2022-08-14T15:26:21;37.30;79.40
19085;DHT22;9675;51.538;6.728;2022-08-14T15:28:48;37.30;79.70
19085;DHT22;9675;51.538;6.728;2022-08-14T15:31:18;37.30;79.70
19085;DHT22;9675;51.538;6.728;2022-08-14T15:33:45;37.30;79.60
19085;DHT22;9675;51.538;6.728;2022-08-14T15:36:29;37.30;79.50
19085;DHT22;9675;51.538;6.728;2022-08-14T15:38:59;37.30;79.40
19085;DHT22;9675;51.538;6.728;2022-08-14T15:41:27;37.20;79.10
19085;DHT22;9675;51.538;6.728;2022-08-14T15:43:55;37.20;78.80
19085;DHT22;9675;51.538;6.728;2022-08-14T15:46:24;37.20;79.40
19085;DHT22;9675;51.538;6.728;2022-08-14T15:48:52;37.20;79.50
19085;DHT22;9675;51.538;6.728;2022-08-14T15:51:19;37.20;79.00
19085;DHT22;9675;51.538;6.728;2022-08-14T15:53:46;37.10;79.20
19085;DHT22;9675;51.538;6.728;2022-08-14T15:56:15;37.10;79.00
19085;DHT22;9675;51.538;6.728;2022-08-14T15:58:43;37.10;78.60
19085;DHT22;9675;51.538;6.728;2022-08-14T16:01:11;37.00;78.60
19085;DHT22;9675;51.538;6.728;2022-08-14T16:03:49;37.00;79.00
19085;DHT22;9675;51.538;6.728;2022-08-14T16:06:21;37.00;78.80
19085;DHT22;9675;51.538;6.728;2022-08-14T16:08:52;36.90;79.00